Time;durP1;ratioP1;P1;durP2;ratioP2;P2;SDS_P1;SDS_P2;PMS_P1;PMS_P2;Temp;Humidity;BMP_temperature;BMP_pressure;BME280_temperature;BME280_humidity;BME280_pressure;Samples;Min_cycle;Max_cycle;Signal;HPM_P1;HPM_P2
2021/11/21 00:00:51;;;;;;;4.33;3.80;;;;;;;7.98;88.89;101615.31;5071601;28;20503;-62
2021/11/21 00:03:17;;;;;;;6.25;3.97;;;;;;;8.01;88.43;101610.69;5071437;28;20028;-62
2021/11/21 00:05:44;;;;;;;5.88;3.83;;;;;;;8.02;88.47;101602.63;5071516;28;20025;-62
2021/11/21 00:08:13;;;;;;;4.57;3.78;;;;;;;8.04;88.57;101599.88;5071239;28;20029;-62
2021/11/21 00:10:39;;;;;;;6.75;3.85;;;;;;;8.05;88.48;101606.84;5071283;28;20040;-63
2021/11/21 00:13:05;;;;;;;5.28;3.90;;;;;;;8.04;88.42;101597.22;5070991;28;20130;-62
2021/11/21 00:15:32;;;;;;;5.78;4.22;;;;;;;8.04;88.20;101605.19;5071234;28;20027;-62
2021/11/21 00:17:58;;;;;;;6.90;4.32;;;;;;;8.04;88.25;101599.88;5071288;28;20016;-63
2021/11/21 00:20:23;;;;;;;6.63;4.47;;;;;;;8.05;88.13;101590.91;5071471;28;20046;-62
2021/11/21 00:22:49;;;;;;;6.43;4.60;;;;;;;8.06;88.36;101585.50;5071209;28;20032;-61
2021/11/21 00:25:15;;;;;;;5.07;3.92;;;;;;;8.07;88.35;101583.69;5071150;28;20027;-61
2021/11/21 00:27:40;;;;;;;6.57;3.80;;;;;;;8.09;88.19;101581.75;5070898;28;20498;-62
2021/11/21 00:30:06;;;;;;;5.13;3.90;;;;;;;8.09;88.30;101577.31;5071259;28;20032;-62
2021/11/21 00:32:32;;;;;;;8.20;3.45;;;;;;;8.11;87.94;101575.38;5070951;28;20333;-62
2021/11/21 00:34:58;;;;;;;5.72;3.30;;;;;;;8.14;87.39;101574.28;5070928;28;20020;-62
2021/11/21 00:37:23;;;;;;;4.25;3.38;;;;;;;8.16;87.34;101575.03;5071046;28;20051;-62
2021/11/21 00:39:48;;;;;;;6.28;3.05;;;;;;;8.21;87.27;101578.19;5070838;28;20031;-62
2021/11/21 00:42:15;;;;;;;4.60;3.23;;;;;;;8.22;87.15;101577.22;5070204;28;20039;-62
2021/11/21 00:44:43;;;;;;;5.63;3.17;;;;;;;8.23;87.28;101575.41;5070810;28;20024;-62
2021/11/21 00:47:10;;;;;;;5.15;3.22;;;;;;;8.24;87.69;101569.97;5070637;28;20599;-62
2021/11/21 00:49:35;;;;;;;6.53;3.58;;;;;;;8.25;87.39;101571.66;5070727;28;20020;-63
2021/11/21 00:52:01;;;;;;;4.57;3.70;;;;;;;8.25;87.60;101576.97;5070651;28;20021;-62
2021/11/21 00:54:38;;;;;;;7.95;3.60;;;;;;;8.26;87.77;101576.03;5070877;28;20313;-62
2021/11/21 00:57:03;;;;;;;7.07;3.20;;;;;;;8.36;87.61;101577.97;5070611;28;20090;-62
2021/11/21 00:59:28;;;;;;;4.28;3.30;;;;;;;8.46;87.39;101576.31;5070912;28;20017;-62
2021/11/21 01:01:54;;;;;;;5.37;2.90;;;;;;;8.56;87.50;101566.66;5070595;28;20476;-62
2021/11/21 01:04:20;;;;;;;4.68;3.35;;;;;;;8.64;87.84;101558.06;5070651;28;20064;-62
2021/11/21 01:06:45;;;;;;;3.85;3.28;;;;;;;8.64;88.07;101556.28;5070423;28;20024;-62
2021/11/21 01:09:12;;;;;;;5.27;3.10;;;;;;;8.59;88.13;101549.63;5070578;28;20032;-62
2021/11/21 01:11:38;;;;;;;3.58;3.08;;;;;;;8.53;88.54;101558.91;5088093;22;20312;-62
2021/11/21 01:14:05;;;;;;;4.18;3.60;;;;;;;8.49;88.94;101546.84;5090776;28;20039;-60
2021/11/21 01:16:31;;;;;;;5.70;3.58;;;;;;;8.54;89.08;101552.66;5090284;28;20529;-65
2021/11/21 01:18:56;;;;;;;5.32;3.30;;;;;;;8.53;88.95;101550.13;5090598;28;20028;-60
2021/11/21 01:21:22;;;;;;;7.87;3.53;;;;;;;8.55;89.14;101540.19;5090243;28;20027;-60
2021/11/21 01:23:48;;;;;;;7.25;3.50;;;;;;;8.56;89.20;101540.09;5090260;28;20025;-61
2021/11/21 01:26:14;;;;;;;5.35;3.80;;;;;;;8.52;89.53;101535.13;5090310;28;20035;-61
2021/11/21 01:28:39;;;;;;;9.50;3.50;;;;;;;8.53;89.84;101536.84;5090095;28;20031;-61
2021/11/21 01:31:04;;;;;;;4.20;3.50;;;;;;;8.45;89.88;101524.97;5090414;28;20068;-60
2021/11/21 01:33:30;;;;;;;7.37;3.47;;;;;;;8.43;90.35;101537.53;5090000;28;20028;-67
2021/11/21 01:35:55;;;;;;;4.03;3.37;;;;;;;8.43;90.59;101531.34;5090782;28;20020;-64
2021/11/21 01:38:21;;;;;;;5.40;3.17;;;;;;;8.42;90.65;101532.34;5090077;28;20065;-61
2021/11/21 01:40:47;;;;;;;4.60;3.50;;;;;;;8.40;91.17;101535.09;5089718;28;20035;-63
2021/11/21 01:43:14;;;;;;;3.78;3.00;;;;;;;8.39;91.02;101530.78;5089653;28;20033;-66
2021/11/21 01:45:39;;;;;;;4.95;3.53;;;;;;;8.43;91.30;101521.59;5071368;28;20035;-62
2021/11/21 01:48:05;;;;;;;3.87;3.00;;;;;;;8.40;91.29;101520.97;5089298;28;20028;-60
2021/11/21 01:50:36;;;;;;;4.38;3.10;;;;;;;8.35;91.37;101518.66;5089453;28;20036;-61
2021/11/21 01:53:03;;;;;;;4.35;3.38;;;;;;;8.37;91.56;101515.91;5089423;28;20027;-61
2021/11/21 01:55:29;;;;;;;5.28;3.95;;;;;;;8.35;91.61;101508.03;5092541;28;20483;-61
2021/11/21 01:57:56;;;;;;;5.53;3.58;;;;;;;8.36;91.90;101514.22;5094015;28;20048;-61
2021/11/21 02:00:24;;;;;;;5.65;3.75;;;;;;;8.37;91.86;101503.47;5093941;28;20103;-61
2021/11/21 02:02:50;;;;;;;4.97;3.80;;;;;;;8.36;91.97;101500.94;5093694;28;20028;-61
2021/11/21 02:05:15;;;;;;;5.10;3.57;;;;;;;8.37;91.96;101502.63;5093524;28;20028;-66
2021/11/21 02:07:45;;;;;;;4.23;3.83;;;;;;;8.38;92.08;101501.66;5093314;28;20036;-60
2021/11/21 02:10:13;;;;;;;6.47;3.90;;;;;;;8.44;91.86;101494.06;5093528;28;20357;-63
2021/11/21 02:12:40;;;;;;;5.85;4.00;;;;;;;8.46;91.90;101488.66;5092698;28;20082;-63
2021/11/21 02:15:12;;;;;;;6.32;5.00;;;;;;;8.48;91.79;101486.72;5093874;28;20055;-67
2021/11/21 02:17:38;;;;;;;4.65;4.25;;;;;;;8.45;91.85;101484.28;5092841;28;20028;-66
2021/11/21 02:20:06;;;;;;;6.68;4.88;;;;;;;8.44;92.08;101483.44;5093642;28;20047;-62
2021/11/21 02:22:32;;;;;;;4.88;4.38;;;;;;;8.45;92.16;101479.81;5093354;28;20032;-67
2021/11/21 02:24:57;;;;;;;6.07;4.25;;;;;;;8.44;91.96;101471.97;5093033;28;20499;-60
2021/11/21 02:27:27;;;;;;;5.47;4.37;;;;;;;8.42;92.24;101471.25;5092668;28;20056;-65
2021/11/21 02:29:53;;;;;;;4.88;4.20;;;;;;;8.43;92.19;101472.91;5092891;28;20036;-60
2021/11/21 02:32:18;;;;;;;6.85;4.70;;;;;;;8.43;92.38;101463.16;5092939;28;20084;-60
2021/11/21 02:34:44;;;;;;;5.45;4.55;;;;;;;8.41;92.51;101459.75;5092833;28;20020;-67
2021/11/21 02:37:09;;;;;;;5.43;4.80;;;;;;;8.40;92.64;101458.06;5093138;28;20119;-64
2021/11/21 02:39:39;;;;;;;4.70;4.20;;;;;;;8.45;92.55;101455.91;5093316;28;20115;-62
2021/11/21 02:42:05;;;;;;;4.32;3.92;;;;;;;8.45;92.68;101449.75;5092509;28;20682;-61
2021/11/21 02:44:31;;;;;;;;;;;;;;;8.45;92.82;101449.75;5093189;28;20044;-65
2021/11/21 02:46:56;;;;;;;4.85;3.72;;;;;;;8.45;92.74;101444.44;5092700;28;19963;-61
2021/11/21 02:49:22;;;;;;;3.40;3.10;;;;;;;8.49;92.87;101442.41;5092304;28;20024;-61
2021/11/21 02:51:47;;;;;;;4.20;3.50;;;;;;;8.49;92.76;101437.94;5092552;28;20039;-61
2021/11/21 02:54:13;;;;;;;3.35;3.05;;;;;;;8.57;92.87;101437.31;5092571;28;20020;-61
2021/11/21 02:56:38;;;;;;;3.25;2.80;;;;;;;8.62;92.92;101429.81;5092158;28;20514;-61
2021/11/21 02:59:04;;;;;;;5.32;3.08;;;;;;;8.62;92.64;101425.34;5092670;28;20020;-60
2021/11/21 03:01:29;;;;;;;5.47;2.92;;;;;;;8.61;92.61;101420.16;5093046;28;20475;-61
2021/11/21 03:03:55;;;;;;;4.87;3.27;;;;;;;8.60;92.71;101426.44;5092600;28;20088;-65
2021/11/21 03:06:22;;;;;;;7.00;3.50;;;;;;;8.62;92.88;101425.34;5091931;28;20020;-62
2021/11/21 03:08:48;;;;;;;5.50;3.33;;;;;;;8.68;92.85;101417.84;5092087;28;20028;-65
2021/11/21 03:11:33;;;;;;;4.25;3.00;;;;;;;8.70;92.71;101421.25;5092044;28;20039;-61
2021/11/21 03:14:01;;;;;;;6.00;3.30;;;;;;;8.74;92.55;101425.31;5092372;28;20024;-62
2021/11/21 03:16:27;;;;;;;6.97;2.65;;;;;;;8.75;92.28;101421.72;5092015;28;20043;-65
2021/11/21 03:18:53;;;;;;;2.88;1.65;;;;;;;8.69;91.67;101417.72;5091990;28;20024;-61
2021/11/21 03:21:18;;;;;;;1.30;0.77;;;;;;;8.59;91.18;101417.63;5091663;28;20595;-61
2021/11/21 03:23:44;;;;;;;2.90;1.00;;;;;;;8.52;91.35;101418.25;5091813;28;20036;-61
2021/11/21 03:26:09;;;;;;;2.13;1.00;;;;;;;8.44;91.68;101413.53;5091976;28;20266;-62
2021/11/21 03:28:35;;;;;;;3.08;0.70;;;;;;;8.40;91.85;101409.44;5092066;28;20024;-61
2021/11/21 03:31:01;;;;;;;2.73;0.70;;;;;;;8.36;91.83;101411.47;5091981;28;20445;-61
2021/11/21 03:33:26;;;;;;;3.42;0.98;;;;;;;8.33;91.87;101411.72;5092251;28;20270;-61
2021/11/21 03:35:52;;;;;;;3.73;0.90;;;;;;;8.31;92.13;101414.53;5091770;28;20463;-65
2021/11/21 03:38:17;;;;;;;2.25;0.73;;;;;;;8.31;92.01;101421.63;5091940;28;20497;-62
2021/11/21 03:40:43;;;;;;;1.45;0.57;;;;;;;8.30;92.07;101422.63;5091737;28;20028;-65
2021/11/21 03:43:09;;;;;;;2.08;0.65;;;;;;;8.29;91.93;101435.03;5091473;28;20349;-63
2021/11/21 03:45:34;;;;;;;2.33;0.68;;;;;;;8.25;91.56;101427.44;5091630;28;20059;-65
2021/11/21 03:48:00;;;;;;;3.83;1.13;;;;;;;8.16;91.88;101428.16;5091585;28;20071;-65
2021/11/21 03:50:26;;;;;;;3.58;0.73;;;;;;;8.10;91.75;101419.72;5091480;28;20132;-62
2021/11/21 03:52:52;;;;;;;3.03;0.60;;;;;;;8.04;91.89;101414.88;5091665;28;20036;-61
2021/11/21 03:55:18;;;;;;;1.85;0.45;;;;;;;8.05;92.31;101421.03;5091620;28;20104;-61
2021/11/21 03:57:44;;;;;;;2.55;0.73;;;;;;;8.03;92.23;101426.47;5091448;28;20432;-67
2021/11/21 04:00:13;;;;;;;2.58;0.70;;;;;;;8.02;92.18;101418.63;5091362;28;20113;-62
2021/11/21 04:02:39;;;;;;;2.70;0.65;;;;;;;8.03;92.33;101423.81;5091483;28;20434;-64
2021/11/21 04:05:05;;;;;;;3.75;0.82;;;;;;;8.02;92.38;101430.06;5091268;28;20024;-66
2021/11/21 04:07:32;;;;;;;2.97;0.90;;;;;;;8.04;92.46;101417.53;5091376;28;20035;-65
2021/11/21 04:09:58;;;;;;;4.28;1.52;;;;;;;7.98;92.30;101423.31;5091201;28;20032;-61
2021/11/21 04:12:23;;;;;;;5.60;1.10;;;;;;;7.98;92.59;101421.53;5090788;28;20483;-61
2021/11/21 04:14:49;;;;;;;1.92;0.50;;;;;;;7.96;92.35;101418.16;5091127;28;20024;-61
2021/11/21 04:17:14;;;;;;;1.92;0.60;;;;;;;7.94;92.33;101420.06;5090278;28;20032;-66
2021/11/21 04:19:40;;;;;;;2.47;0.60;;;;;;;7.94;92.00;101417.41;5090635;28;20154;-62
2021/11/21 04:22:05;;;;;;;1.92;0.80;;;;;;;7.91;91.20;101422.13;5090915;28;20024;-65
2021/11/21 04:24:31;;;;;;;4.73;0.80;;;;;;;7.87;90.40;101418.88;5090776;28;20065;-64
2021/11/21 04:26:56;;;;;;;6.70;0.83;;;;;;;7.82;90.73;101418.38;5090771;28;20016;-61
2021/11/21 04:29:21;;;;;;;2.27;0.60;;;;;;;7.78;90.40;101428.38;5090069;28;20039;-66
2021/11/21 04:31:48;;;;;;;1.33;0.70;;;;;;;7.78;90.33;101433.69;5091131;28;20036;-63
2021/11/21 04:34:14;;;;;;;2.40;0.95;;;;;;;7.76;90.48;101430.31;5090670;28;20145;-61
2021/11/21 04:36:39;;;;;;;1.50;0.57;;;;;;;7.77;89.92;101434.66;5090863;28;20057;-62
2021/11/21 04:39:04;;;;;;;4.30;1.13;;;;;;;7.75;89.44;101427.78;5090848;28;20574;-64
2021/11/21 04:41:30;;;;;;;3.20;0.83;;;;;;;7.73;89.41;101425.22;5090582;28;20524;-63
2021/11/21 04:43:57;;;;;;;2.53;0.70;;;;;;;7.70;90.07;101432.59;5090444;28;20028;-61
2021/11/21 04:46:24;;;;;;;3.50;1.23;;;;;;;7.68;90.31;101426.56;5090641;28;20028;-61
2021/11/21 04:48:49;;;;;;;2.50;0.87;;;;;;;7.65;90.77;101432.94;5090821;28;20039;-66
2021/11/21 04:51:14;;;;;;;2.37;0.60;;;;;;;7.63;90.60;101433.06;5090522;28;20020;-61
2021/11/21 04:53:40;;;;;;;3.10;0.60;;;;;;;7.61;90.52;101428.84;5090703;28;20100;-61
2021/11/21 04:56:05;;;;;;;5.73;0.70;;;;;;;7.56;90.80;101426.53;5090301;28;20023;-63
2021/11/21 04:58:30;;;;;;;3.20;0.80;;;;;;;7.57;90.85;101427.38;5090694;28;20551;-66
2021/11/21 05:00:56;;;;;;;2.20;0.73;;;;;;;7.52;91.02;101425.06;5090488;28;20028;-61
2021/11/21 05:03:21;;;;;;;3.50;0.80;;;;;;;7.53;91.18;101423.28;5090137;28;20026;-66
2021/11/21 05:05:46;;;;;;;3.90;0.80;;;;;;;7.54;91.20;101422.31;5090406;28;20039;-61
2021/11/21 05:08:12;;;;;;;2.03;0.63;;;;;;;7.50;91.15;101418.19;5089773;28;20055;-67
2021/11/21 05:10:37;;;;;;;2.33;1.03;;;;;;;7.51;91.30;101418.06;5090391;28;20024;-60
2021/11/21 05:13:02;;;;;;;2.57;0.80;;;;;;;7.49;90.88;101417.38;5099438;22;20139;-62
2021/11/21 05:15:28;;;;;;;7.03;0.83;;;;;;;7.46;91.00;101420.25;5089943;28;20058;-61
2021/11/21 05:17:53;;;;;;;2.93;1.00;;;;;;;7.42;91.04;101424.94;5089868;28;20390;-66
2021/11/21 05:20:20;;;;;;;3.42;0.82;;;;;;;7.42;91.26;101418.78;5090322;28;20017;-60
2021/11/21 05:22:45;;;;;;;;;;;;;;;7.41;91.48;101420.59;5090247;28;20538;-66
2021/11/21 05:25:12;;;;;;;6.57;0.80;;;;;;;7.39;91.38;101419.03;5090378;28;19967;-63
2021/11/21 05:27:38;;;;;;;4.90;1.13;;;;;;;7.38;91.09;101422.63;5090385;28;20085;-62
2021/11/21 05:30:06;;;;;;;5.97;1.02;;;;;;;7.37;91.20;101428.88;5075649;28;20024;-61
2021/11/21 05:32:32;;;;;;;3.07;1.07;;;;;;;7.31;90.67;101425.75;5094240;28;20112;-63
2021/11/21 05:34:57;;;;;;;2.20;0.85;;;;;;;7.30;90.84;101420.56;5093889;28;20047;-60
2021/11/21 05:37:23;;;;;;;5.50;1.20;;;;;;;7.27;90.85;101421.63;5093555;28;20040;-60
2021/11/21 05:39:48;;;;;;;3.70;0.73;;;;;;;7.20;90.91;101409.81;5093690;28;20023;-67
2021/11/21 05:42:14;;;;;;;4.77;0.80;;;;;;;7.19;91.36;101413.41;5094095;28;20449;-60
2021/11/21 05:44:39;;;;;;;2.70;0.90;;;;;;;7.13;91.55;101416.53;5093995;28;20039;-60
2021/11/21 05:47:05;;;;;;;4.70;0.95;;;;;;;7.12;91.58;101415.69;5094299;28;20031;-65
2021/11/21 05:49:30;;;;;;;3.60;1.10;;;;;;;7.06;91.24;101418.78;5094205;28;20023;-60
2021/11/21 05:51:56;;;;;;;4.27;0.77;;;;;;;7.01;90.91;101423.56;5075840;28;20414;-64
2021/11/21 05:54:21;;;;;;;3.13;0.68;;;;;;;6.97;90.06;101420.34;5093677;28;20032;-60
2021/11/21 05:56:47;;;;;;;6.20;0.90;;;;;;;6.89;89.90;101419.19;5094076;28;20032;-66
2021/11/21 05:59:12;;;;;;;10.10;1.33;;;;;;;6.88;89.22;101415.72;5093826;28;20290;-60
2021/11/21 06:01:37;;;;;;;1.93;0.80;;;;;;;6.84;88.90;101413.41;5093816;28;20032;-63
2021/11/21 06:04:03;;;;;;;3.73;1.13;;;;;;;6.78;89.49;101409.41;5093540;28;20051;-66
2021/11/21 06:06:29;;;;;;;5.63;0.90;;;;;;;6.74;90.20;101411.41;5093314;28;20020;-62
2021/11/21 06:08:54;;;;;;;1.97;1.03;;;;;;;6.73;89.79;101422.13;5093696;28;20115;-61
2021/11/21 06:11:19;;;;;;;4.43;0.90;;;;;;;6.81;85.44;101419.75;5092937;28;20393;-64
2021/11/21 06:13:45;;;;;;;4.43;1.00;;;;;;;6.90;84.58;101408.47;5093236;28;20475;-64
2021/11/21 06:16:10;;;;;;;5.30;0.83;;;;;;;6.93;83.07;101415.34;5093246;28;20106;-61
2021/11/21 06:18:35;;;;;;;2.03;0.77;;;;;;;6.92;83.86;101422.47;5093418;28;20020;-60
2021/11/21 06:21:01;;;;;;;4.70;0.93;;;;;;;6.89;85.08;101420.03;5093494;28;20056;-61
2021/11/21 06:23:32;;;;;;;3.03;0.90;;;;;;;6.89;84.74;101421.84;5093553;28;20020;-60
2021/11/21 06:25:57;;;;;;;1.90;0.70;;;;;;;6.90;82.65;101429.69;5093505;28;20032;-60
2021/11/21 06:28:23;;;;;;;5.43;0.70;;;;;;;7.01;81.24;101414.78;5093403;28;20031;-63
2021/11/21 06:30:48;;;;;;;4.20;0.83;;;;;;;7.01;82.56;101422.75;5075204;28;20024;-61
2021/11/21 06:33:13;;;;;;;4.37;1.50;;;;;;;6.94;82.47;101415.25;5093203;28;20042;-60
2021/11/21 06:35:39;;;;;;;3.50;0.90;;;;;;;6.88;83.24;101421.00;5093226;28;20020;-61
2021/11/21 06:38:05;;;;;;;2.70;0.82;;;;;;;6.81;84.21;101422.41;5092962;28;20020;-62
2021/11/21 06:40:30;;;;;;;4.55;0.70;;;;;;;6.70;85.22;101420.56;5091791;28;20059;-64
2021/11/21 06:42:56;;;;;;;2.50;0.73;;;;;;;6.70;85.73;101427.63;5092524;28;20032;-61
2021/11/21 06:45:21;;;;;;;5.03;1.17;;;;;;;6.66;85.88;101427.03;5092747;28;20618;-67
2021/11/21 06:47:46;;;;;;;6.77;1.13;;;;;;;6.67;85.88;101427.88;5092633;28;20032;-61
2021/11/21 06:50:14;;;;;;;3.70;1.03;;;;;;;6.63;86.44;101427.25;5092797;28;20027;-60
2021/11/21 06:52:42;;;;;;;3.57;1.10;;;;;;;6.59;86.43;101421.34;5092729;28;20293;-60
2021/11/21 06:55:09;;;;;;;4.80;1.13;;;;;;;6.63;85.26;101428.09;5092902;28;20032;-60
2021/11/21 06:57:35;;;;;;;3.90;1.00;;;;;;;6.64;84.82;101427.16;5092824;28;20521;-60
2021/11/21 07:00:05;;;;;;;6.70;1.05;;;;;;;6.70;82.41;101425.84;5092358;28;20024;-62
2021/11/21 07:02:30;;;;;;;3.53;0.90;;;;;;;6.73;82.10;101430.91;5092648;28;20024;-60
2021/11/21 07:04:55;;;;;;;5.33;1.00;;;;;;;6.67;82.44;101428.72;5090748;28;20020;-60
2021/11/21 07:07:20;;;;;;;3.70;0.80;;;;;;;6.67;81.12;101427.88;5092625;28;20032;-60
2021/11/21 07:09:48;;;;;;;8.27;1.23;;;;;;;6.71;80.39;101443.44;5092494;28;20046;-64
2021/11/21 07:12:13;;;;;;;6.17;1.10;;;;;;;6.56;82.71;101448.03;5092302;28;20075;-63
2021/11/21 07:14:39;;;;;;;5.83;1.20;;;;;;;6.44;84.62;101444.47;5092503;28;20391;-59
2021/11/21 07:17:05;;;;;;;4.67;1.10;;;;;;;6.41;84.41;101451.75;5092497;28;20032;-61
2021/11/21 07:19:31;;;;;;;4.83;1.30;;;;;;;6.40;83.98;101452.75;5092141;28;20112;-63
2021/11/21 07:21:57;;;;;;;7.28;1.90;;;;;;;6.28;85.14;101444.72;5087699;28;20111;-65
2021/11/21 07:24:22;;;;;;;7.18;1.38;;;;;;;6.14;85.70;101443.03;5071783;28;20017;-60
2021/11/21 07:26:48;;;;;;;3.55;1.25;;;;;;;6.05;85.69;101448.97;5072022;28;20051;-59
2021/11/21 07:29:13;;;;;;;2.38;0.85;;;;;;;5.94;86.54;101448.84;5085215;28;20032;-63
2021/11/21 07:31:39;;;;;;;4.00;0.80;;;;;;;5.80;87.30;101457.72;5081108;28;20388;-60
2021/11/21 07:34:05;;;;;;;6.87;1.33;;;;;;;5.69;88.02;101455.81;5071668;28;20131;-66
2021/11/21 07:36:31;;;;;;;6.63;1.07;;;;;;;5.61;88.33;101453.69;5087289;28;20115;-59
2021/11/21 07:38:56;;;;;;;2.73;1.13;;;;;;;5.55;89.19;101456.75;5092021;28;20752;-60
2021/11/21 07:41:22;;;;;;;4.20;1.10;;;;;;;5.55;89.84;101456.75;5090949;28;20048;-61
2021/11/21 07:43:47;;;;;;;5.60;0.93;;;;;;;5.64;89.83;101471.97;5092004;28;20289;-62
2021/11/21 07:46:13;;;;;;;3.10;1.00;;;;;;;5.87;87.74;101474.03;5091502;28;20028;-59
2021/11/21 07:48:39;;;;;;;2.28;0.82;;;;;;;6.02;86.46;101486.22;5091331;28;20298;-60
2021/11/21 07:51:05;;;;;;;5.00;0.93;;;;;;;6.12;87.42;101470.53;5091296;28;20023;-59
2021/11/21 07:53:30;;;;;;;1.85;1.15;;;;;;;6.05;87.97;101466.66;5090400;28;20039;-63
2021/11/21 07:55:56;;;;;;;5.70;1.43;;;;;;;6.01;88.84;101467.81;5071417;28;20428;-59
2021/11/21 07:58:21;;;;;;;4.00;0.95;;;;;;;6.00;89.70;101474.88;5071461;28;20115;-62
2021/11/21 08:00:47;;;;;;;5.88;1.10;;;;;;;6.01;88.03;101470.47;5053235;28;20036;-65
2021/11/21 08:03:13;;;;;;;9.48;1.45;;;;;;;5.97;88.65;101464.50;5071035;28;20483;-61
2021/11/21 08:05:39;;;;;;;5.90;1.10;;;;;;;5.95;88.52;101475.19;5071122;28;20029;-63
2021/11/21 08:08:06;;;;;;;2.10;0.63;;;;;;;5.93;88.46;101481.53;5071275;28;20499;-64
2021/11/21 08:10:33;;;;;;;4.10;1.00;;;;;;;5.90;88.31;101482.59;5070956;28;20491;-59
2021/11/21 08:12:58;;;;;;;4.73;1.40;;;;;;;5.89;88.68;101483.53;5071080;28;20135;-62
2021/11/21 08:15:24;;;;;;;4.25;0.90;;;;;;;5.85;88.58;101487.34;5053078;28;20124;-59
2021/11/21 08:17:49;;;;;;;7.17;1.63;;;;;;;5.79;88.87;101485.13;5070957;28;20060;-60
2021/11/21 08:20:15;;;;;;;5.30;0.80;;;;;;;5.75;88.73;101494.22;5070789;28;20025;-59
2021/11/21 08:22:41;;;;;;;9.50;1.53;;;;;;;5.68;89.41;101488.50;5070673;28;20108;-64
2021/11/21 08:25:07;;;;;;;3.17;1.00;;;;;;;5.61;89.77;101488.06;5071012;28;20020;-59
2021/11/21 08:27:33;;;;;;;5.05;1.05;;;;;;;5.56;90.20;101486.69;5070665;28;20418;-65
2021/11/21 08:29:59;;;;;;;3.15;0.75;;;;;;;5.47;90.18;101496.91;5071048;28;20094;-62
2021/11/21 08:32:25;;;;;;;5.80;1.30;;;;;;;5.43;90.68;101492.78;5071235;28;20013;-65
2021/11/21 08:34:50;;;;;;;4.25;0.80;;;;;;;5.42;90.75;101492.88;5070847;28;20085;-59
2021/11/21 08:37:16;;;;;;;3.60;1.08;;;;;;;5.41;91.31;101491.19;5052883;28;20028;-65
2021/11/21 08:39:41;;;;;;;2.83;0.83;;;;;;;5.40;91.42;101495.63;5070677;28;20520;-64
2021/11/21 08:42:06;;;;;;;1.63;0.77;;;;;;;5.41;91.58;101492.06;5070581;28;20020;-66
2021/11/21 08:44:33;;;;;;;3.67;1.23;;;;;;;5.48;91.55;101492.50;5070689;28;20039;-58
2021/11/21 08:46:58;;;;;;;5.97;1.38;;;;;;;5.60;91.03;101486.38;5070561;28;20498;-61
2021/11/21 08:49:24;;;;;;;4.18;1.20;;;;;;;5.70;90.63;101488.38;5070432;28;20067;-62
2021/11/21 08:51:49;;;;;;;5.67;1.10;;;;;;;5.88;88.74;101487.13;5070442;28;20036;-59
2021/11/21 08:54:16;;;;;;;6.18;1.10;;;;;;;5.97;88.24;101493.59;5070274;28;20036;-63
2021/11/21 08:56:43;;;;;;;6.27;1.57;;;;;;;6.02;86.93;101485.41;5052457;28;20035;-59
2021/11/21 08:59:08;;;;;;;7.83;1.27;;;;;;;5.96;86.86;101495.41;5070495;28;20600;-59
2021/11/21 09:01:34;;;;;;;3.77;1.20;;;;;;;6.00;85.52;101493.41;5070236;28;20020;-65
2021/11/21 09:03:59;;;;;;;5.63;1.10;;;;;;;6.03;84.36;101489.72;5069683;28;20399;-66
2021/11/21 09:06:25;;;;;;;2.03;0.80;;;;;;;6.06;83.28;101494.81;5070201;28;20024;-65
2021/11/21 09:08:51;;;;;;;6.33;1.17;;;;;;;6.11;83.42;101484.75;5070432;28;20035;-59
2021/11/21 09:11:16;;;;;;;2.35;0.90;;;;;;;6.07;83.74;101494.69;5080148;22;20274;-66
2021/11/21 09:13:41;;;;;;;3.00;0.80;;;;;;;6.09;83.76;101489.28;5070213;28;20040;-60
2021/11/21 09:16:08;;;;;;;4.20;0.70;;;;;;;6.14;84.42;101492.47;5070352;28;20073;-61
2021/11/21 09:18:34;;;;;;;3.60;1.00;;;;;;;6.20;83.73;101488.53;5070239;28;20040;-65
2021/11/21 09:20:59;;;;;;;1.98;1.00;;;;;;;6.24;84.11;101490.88;5070294;28;20274;-59
2021/11/21 09:23:25;;;;;;;4.33;1.30;;;;;;;6.43;83.48;101494.88;5070292;28;20554;-59
2021/11/21 09:25:52;;;;;;;7.13;1.50;;;;;;;6.73;81.61;101489.19;5070106;28;20029;-61
2021/11/21 09:28:19;;;;;;;7.07;1.33;;;;;;;6.96;80.65;101494.63;5070190;28;20112;-60
2021/11/21 09:30:45;;;;;;;5.43;0.90;;;;;;;7.10;81.10;101502.41;5070124;28;20388;-60
2021/11/21 09:33:11;;;;;;;9.05;1.17;;;;;;;7.22;81.08;101506.00;5070077;28;20035;-65
2021/11/21 09:35:36;;;;;;;4.25;0.98;;;;;;;7.35;79.94;101505.91;5069648;28;20044;-64
2021/11/21 09:38:02;;;;;;;4.13;1.00;;;;;;;7.47;77.51;101502.34;5069687;28;20396;-65
2021/11/21 09:40:27;;;;;;;9.68;2.78;;;;;;;7.54;76.29;101505.38;5069971;28;20025;-60
2021/11/21 09:42:53;;;;;;;4.30;1.57;;;;;;;7.56;77.90;101511.41;5070120;28;20020;-60
2021/11/21 09:45:19;;;;;;;9.20;1.00;;;;;;;7.65;76.34;101512.53;5070109;28;20040;-66
2021/11/21 09:47:50;;;;;;;3.28;1.00;;;;;;;7.68;76.82;101511.44;5069716;28;20266;-60
2021/11/21 09:50:15;;;;;;;5.53;1.33;;;;;;;7.71;75.34;101517.38;5070372;28;20225;-64
2021/11/21 09:52:41;;;;;;;5.82;1.00;;;;;;;7.76;76.19;101517.88;5069734;28;20111;-60
2021/11/21 09:55:07;;;;;;;8.53;0.97;;;;;;;7.82;76.89;101524.53;5069748;28;20025;-60
2021/11/21 09:57:35;;;;;;;5.82;1.13;;;;;;;7.91;74.06;101518.50;5069893;28;20037;-61
2021/11/21 10:00:06;;;;;;;3.40;0.97;;;;;;;7.97;75.30;101507.44;5069466;28;20494;-60
2021/11/21 10:02:38;;;;;;;3.58;0.95;;;;;;;8.01;74.61;101512.50;5069697;28;20395;-60
2021/11/21 10:05:08;;;;;;;3.08;0.60;;;;;;;8.08;73.70;101513.72;5069035;28;20376;-60
2021/11/21 10:07:36;;;;;;;5.07;1.05;;;;;;;8.11;71.47;101516.97;5069475;28;20174;-65
2021/11/21 10:10:05;;;;;;;5.95;1.30;;;;;;;8.14;72.16;101519.41;5069377;28;20024;-61
2021/11/21 10:12:40;;;;;;;4.07;1.20;;;;;;;8.13;73.57;101516.88;5069081;28;20041;-63
2021/11/21 10:15:15;;;;;;;5.32;0.93;;;;;;;8.20;72.69;101518.06;5052223;28;20049;-62
2021/11/21 10:17:46;;;;;;;3.67;1.02;;;;;;;8.26;72.65;101524.69;5073135;28;20028;-60
2021/11/21 10:20:23;;;;;;;2.42;1.00;;;;;;;8.26;72.96;101514.94;5073348;28;20044;-60
2021/11/21 10:23:06;;;;;;;3.20;0.77;;;;;;;8.33;74.62;101520.63;5073207;28;20025;-63
2021/11/21 10:25:31;;;;;;;1.88;0.80;;;;;;;8.40;73.16;101513.84;5073064;28;20066;-60
2021/11/21 10:28:20;;;;;;;2.20;0.90;;;;;;;8.49;72.52;101512.31;5072804;28;20072;-60
2021/11/21 10:31:11;;;;;;;7.47;1.65;;;;;;;8.59;72.18;101512.44;5072497;28;20398;-60
2021/11/21 10:33:39;;;;;;;2.22;0.80;;;;;;;8.59;69.93;101510.63;5072969;28;20029;-60
2021/11/21 10:36:10;;;;;;;3.03;1.02;;;;;;;8.54;68.99;101504.00;5073160;28;20048;-65
2021/11/21 10:39:01;;;;;;;4.93;1.33;;;;;;;8.53;68.72;101510.25;5072680;28;20112;-59
2021/11/21 10:41:27;;;;;;;2.80;0.90;;;;;;;8.53;70.14;101510.25;5072506;28;20025;-60
2021/11/21 10:44:11;;;;;;;2.10;0.95;;;;;;;8.54;68.38;101509.31;5072685;28;20059;-60
2021/11/21 10:46:48;;;;;;;4.25;0.80;;;;;;;8.57;67.37;101509.88;5072516;28;20035;-61
2021/11/21 10:49:36;;;;;;;5.43;1.08;;;;;;;8.58;67.01;101500.13;5072371;28;20044;-60
2021/11/21 10:52:01;;;;;;;1.67;0.80;;;;;;;8.61;68.46;101503.34;5072720;28;20020;-65
2021/11/21 10:54:48;;;;;;;3.40;0.87;;;;;;;8.76;68.96;101505.75;5072438;28;20027;-63
2021/11/21 10:57:20;;;;;;;6.72;1.00;;;;;;;9.01;68.76;101506.44;5072201;28;20016;-65
2021/11/21 10:59:54;;;;;;;3.95;1.60;;;;;;;9.29;68.38;101502.38;5072399;28;20051;-60
2021/11/21 11:02:25;;;;;;;3.38;1.45;;;;;;;9.61;68.47;101506.81;5072468;28;20379;-67
2021/11/21 11:05:06;;;;;;;4.00;1.30;;;;;;;9.50;67.55;101506.88;5072089;28;20031;-60
2021/11/21 11:07:39;;;;;;;3.88;1.20;;;;;;;9.14;66.95;101515.13;5072292;28;20491;-60
2021/11/21 11:10:10;;;;;;;7.13;1.10;;;;;;;8.80;68.03;101515.19;5054307;28;20028;-60
2021/11/21 11:12:36;;;;;;;4.43;1.25;;;;;;;8.64;69.82;101512.91;5071890;28;20044;-60
2021/11/21 11:15:03;;;;;;;4.43;1.17;;;;;;;8.49;70.65;101509.66;5072138;28;20090;-60
2021/11/21 11:17:29;;;;;;;3.92;1.23;;;;;;;8.47;72.23;101516.91;5072223;28;20028;-60
2021/11/21 11:19:59;;;;;;;9.18;1.48;;;;;;;8.66;72.23;101513.63;5072164;28;20306;-60
2021/11/21 11:22:28;;;;;;;9.77;1.10;;;;;;;8.89;70.94;101511.78;5071777;28;20017;-67
2021/11/21 11:24:56;;;;;;;7.63;1.27;;;;;;;8.92;72.84;101516.84;5072010;28;20107;-66
2021/11/21 11:27:41;;;;;;;11.98;1.58;;;;;;;8.97;72.42;101509.34;5071725;28;20376;-67
2021/11/21 11:30:06;;;;;;;3.05;1.08;;;;;;;8.91;71.88;101514.31;5071679;28;20483;-62
2021/11/21 11:32:36;;;;;;;5.85;1.35;;;;;;;8.75;68.64;101507.56;5071978;28;20023;-66